createdAt,value
2018-09-10T00:00:52.889Z,7.60
2018-09-10T00:01:52.851Z,7.30
2018-09-10T00:02:52.840Z,7.30
2018-09-10T00:03:52.765Z,7.30
2018-09-10T00:04:52.740Z,7.50
2018-09-10T00:05:52.697Z,7.80
2018-09-10T00:06:52.665Z,8.10
2018-09-10T00:07:52.621Z,8.20
2018-09-10T00:08:52.601Z,7.90
2018-09-10T00:09:52.537Z,7.70
2018-09-10T00:10:52.528Z,7.10
2018-09-10T00:11:52.486Z,7.20
2018-09-10T00:12:52.415Z,6.80
2018-09-10T00:13:52.390Z,6.60
2018-09-10T00:14:52.408Z,6.80
2018-09-10T00:15:52.339Z,7.30
2018-09-10T00:16:52.282Z,7.20
2018-09-10T00:17:52.224Z,7.00
2018-09-10T00:18:52.201Z,7.00
2018-09-10T00:19:52.242Z,6.70
2018-09-10T00:20:52.116Z,6.70
2018-09-10T00:21:52.089Z,7.00
2018-09-10T00:22:52.075Z,7.60
2018-09-10T00:23:52.021Z,7.70
2018-09-10T00:24:51.979Z,8.00
2018-09-10T00:25:51.915Z,7.70
2018-09-10T00:26:51.930Z,7.30
2018-09-10T00:27:51.917Z,7.60
2018-09-10T00:28:51.850Z,8.00
2018-09-10T00:29:51.777Z,7.30
2018-09-10T00:30:51.787Z,7.90
2018-09-10T00:31:51.749Z,8.10
2018-09-10T00:32:51.658Z,7.80
2018-09-10T00:33:51.647Z,8.10
2018-09-10T00:34:51.581Z,7.70
2018-09-10T00:35:51.559Z,8.00
2018-09-10T00:36:51.538Z,7.80
2018-09-10T00:37:51.476Z,8.20
2018-09-10T00:38:51.485Z,7.90
2018-09-10T00:39:51.389Z,8.10
2018-09-10T00:40:51.345Z,7.60
2018-09-10T00:41:52.185Z,7.80
2018-09-10T00:42:51.268Z,7.70
2018-09-10T00:43:51.228Z,7.50
2018-09-10T00:44:51.186Z,7.40
2018-09-10T00:45:51.142Z,7.70
2018-09-10T00:46:51.146Z,7.80
2018-09-10T00:47:51.190Z,7.90
2018-09-10T00:48:51.054Z,7.90
2018-09-10T00:49:50.994Z,8.40
2018-09-10T00:50:50.981Z,8.10
2018-09-10T00:51:50.910Z,8.60
2018-09-10T00:52:50.881Z,8.40
2018-09-10T00:53:50.838Z,8.40
2018-09-10T00:54:50.804Z,8.30
2018-09-10T00:55:50.769Z,8.50
2018-09-10T00:56:50.739Z,8.30
2018-09-10T00:57:50.676Z,8.50
2018-09-10T00:58:50.654Z,8.30
2018-09-10T00:59:50.602Z,9.00
2018-09-10T01:00:50.648Z,8.10
2018-09-10T01:01:50.542Z,7.90
2018-09-10T01:02:50.480Z,9.50
2018-09-10T01:03:50.435Z,8.50
2018-09-10T01:04:50.468Z,8.50
2018-09-10T01:05:50.358Z,8.00
2018-09-10T01:06:50.322Z,8.70
2018-09-10T01:07:50.291Z,9.50
2018-09-10T01:08:50.266Z,9.20
2018-09-10T01:09:50.204Z,8.80
2018-09-10T01:10:50.191Z,9.00
2018-09-10T01:11:50.136Z,9.00
2018-09-10T01:12:50.092Z,8.70
2018-09-10T01:13:50.048Z,8.80
2018-09-10T01:14:50.015Z,33.20
2018-09-10T01:15:49.989Z,9.90
2018-09-10T01:16:49.928Z,9.40
2018-09-10T01:17:49.915Z,9.00
2018-09-10T01:18:49.853Z,18.20
2018-09-10T01:19:49.873Z,23.90
2018-09-10T01:20:49.772Z,11.80
2018-09-10T01:21:49.796Z,12.10
2018-09-10T01:22:49.707Z,10.40
2018-09-10T01:23:49.709Z,10.40
2018-09-10T01:24:49.622Z,10.30
2018-09-10T01:25:49.593Z,16.00
2018-09-10T01:26:49.627Z,12.50
2018-09-10T01:27:49.509Z,9.90
2018-09-10T01:28:49.464Z,13.50
2018-09-10T01:29:49.430Z,10.70
2018-09-10T01:30:49.399Z,10.30
2018-09-10T01:31:49.340Z,9.80
2018-09-10T01:32:49.306Z,9.20
2018-09-10T01:33:49.259Z,9.40
2018-09-10T01:34:49.290Z,9.90
2018-09-10T01:35:49.195Z,9.40
2018-09-10T01:36:49.167Z,10.00
2018-09-10T01:37:49.120Z,10.50
2018-09-10T01:38:49.074Z,11.80
2018-09-10T01:39:49.037Z,10.90
2018-09-10T01:40:48.990Z,10.00
2018-09-10T01:41:48.959Z,9.60
2018-09-10T01:42:48.930Z,9.70
2018-09-10T01:43:48.881Z,10.00
2018-09-10T01:44:48.861Z,9.70
2018-09-10T01:45:48.859Z,9.60
2018-09-10T01:46:48.795Z,8.60
2018-09-10T01:47:48.714Z,8.70
2018-09-10T01:48:48.692Z,9.10
2018-09-10T01:49:48.646Z,8.40
2018-09-10T01:50:48.600Z,8.60
2018-09-10T01:51:48.555Z,8.10
2018-09-10T01:52:48.513Z,8.80
2018-09-10T01:53:48.488Z,8.90
2018-09-10T01:54:48.449Z,9.10
2018-09-10T01:55:48.426Z,9.50
2018-09-10T01:56:48.364Z,9.20
2018-09-10T01:57:48.343Z,9.40
2018-09-10T01:58:48.286Z,9.70
2018-09-10T01:59:48.257Z,9.60
2018-09-10T02:00:48.205Z,9.80
2018-09-10T02:01:48.257Z,9.90
2018-09-10T02:02:48.131Z,9.90
2018-09-10T02:03:48.101Z,11.10
2018-09-10T02:04:48.115Z,10.50
2018-09-10T02:05:48.082Z,10.70
2018-09-10T02:06:47.973Z,10.20
2018-09-10T02:07:47.976Z,10.30
2018-09-10T02:08:47.883Z,10.80
2018-09-10T02:09:47.875Z,10.70
2018-09-10T02:10:47.814Z,11.10
2018-09-10T02:11:47.790Z,11.50
2018-09-10T02:12:47.796Z,22.00
2018-09-10T02:13:47.691Z,13.90
2018-09-10T02:14:47.703Z,25.60
2018-09-10T02:15:47.716Z,13.80
2018-09-10T02:16:47.605Z,10.70
2018-09-10T02:17:47.537Z,10.80
2018-09-10T02:18:47.503Z,11.30
2018-09-10T02:19:47.457Z,11.20
2018-09-10T02:20:47.420Z,10.70
2018-09-10T02:21:47.439Z,9.30
2018-09-10T02:22:47.335Z,10.10
2018-09-10T02:23:47.300Z,10.50
2018-09-10T02:24:47.346Z,10.30
2018-09-10T02:25:47.267Z,10.20
2018-09-10T02:26:47.181Z,10.90
2018-09-10T02:27:47.218Z,10.40
2018-09-10T02:28:47.154Z,10.20
2018-09-10T02:29:47.072Z,10.30
2018-09-10T02:30:47.029Z,11.40
2018-09-10T02:31:46.989Z,10.50
2018-09-10T02:32:46.947Z,13.60
2018-09-10T02:33:46.906Z,13.20
2018-09-10T02:34:46.868Z,21.80
2018-09-10T02:35:46.842Z,20.90
2018-09-10T02:36:46.787Z,12.10
2018-09-10T02:37:46.751Z,14.20
2018-09-10T02:38:46.702Z,12.90
2018-09-10T02:39:46.666Z,12.20
2018-09-10T02:40:46.622Z,14.20
2018-09-10T02:41:46.593Z,10.60
2018-09-10T02:42:46.544Z,10.90
2018-09-10T02:43:46.504Z,12.00
2018-09-10T02:44:46.534Z,11.10
2018-09-10T02:45:46.439Z,11.50
2018-09-10T02:46:46.493Z,11.90
2018-09-10T02:47:46.344Z,10.80
2018-09-10T02:48:46.308Z,10.30
2018-09-10T02:49:46.277Z,10.60
2018-09-10T02:50:46.241Z,10.70
2018-09-10T02:51:46.180Z,9.50
2018-09-10T02:52:46.158Z,10.20
2018-09-10T02:53:46.127Z,10.10
2018-09-10T02:54:46.128Z,10.20
2018-09-10T02:55:46.030Z,10.20
2018-09-10T02:56:45.982Z,9.80
2018-09-10T02:57:45.958Z,10.60
2018-09-10T02:58:45.905Z,10.20
2018-09-10T02:59:45.864Z,10.70
2018-09-10T03:00:45.826Z,10.30
2018-09-10T03:01:45.797Z,9.70
2018-09-10T03:02:45.743Z,10.60
2018-09-10T03:03:45.729Z,10.00
2018-09-10T03:04:45.684Z,10.70
2018-09-10T03:05:45.645Z,10.70
2018-09-10T03:06:45.589Z,11.20
2018-09-10T03:07:45.594Z,21.20
2018-09-10T03:08:45.523Z,14.40
2018-09-10T03:09:45.529Z,11.20
2018-09-10T03:10:45.432Z,9.20
2018-09-10T03:11:45.391Z,9.70
2018-09-10T03:12:45.363Z,9.80
2018-09-10T03:13:45.322Z,10.00
2018-09-10T03:14:45.275Z,10.20
2018-09-10T03:15:45.229Z,13.70
2018-09-10T03:16:45.189Z,18.00
2018-09-10T03:17:45.180Z,16.10
2018-09-10T03:18:45.123Z,14.80
2018-09-10T03:19:45.072Z,17.50
2018-09-10T03:20:45.055Z,15.30
2018-09-10T03:21:45.003Z,10.10
2018-09-10T03:22:44.953Z,10.30
2018-09-10T03:23:44.909Z,11.90
2018-09-10T03:24:44.899Z,11.30
2018-09-10T03:25:44.838Z,11.50
2018-09-10T03:26:44.800Z,11.30
2018-09-10T03:27:44.873Z,14.60
2018-09-10T03:28:44.721Z,24.30
2018-09-10T03:29:44.724Z,21.00
2018-09-10T03:30:44.637Z,16.50
2018-09-10T03:31:44.615Z,19.30
2018-09-10T03:32:44.570Z,27.00
2018-09-10T03:33:44.519Z,14.30
2018-09-10T03:34:44.471Z,18.20
2018-09-10T03:35:44.432Z,29.80
2018-09-10T03:36:44.397Z,23.60
2018-09-10T03:37:44.352Z,12.80
2018-09-10T03:38:44.319Z,11.10
2018-09-10T03:39:44.269Z,12.10
2018-09-10T03:40:44.249Z,11.90
2018-09-10T03:41:44.200Z,11.40
2018-09-10T03:42:44.171Z,11.40
2018-09-10T03:43:44.139Z,10.70
2018-09-10T03:44:44.154Z,11.40
2018-09-10T03:45:44.049Z,11.70
2018-09-10T03:46:44.003Z,11.50
2018-09-10T03:47:43.963Z,11.70
2018-09-10T03:48:43.910Z,11.40
2018-09-10T03:49:43.868Z,11.00
2018-09-10T03:50:43.840Z,11.00
2018-09-10T03:51:43.788Z,11.00
2018-09-10T03:52:43.756Z,11.00
2018-09-10T03:53:43.724Z,10.50
2018-09-10T03:54:43.675Z,11.20
2018-09-10T03:55:43.661Z,10.50
2018-09-10T03:56:43.594Z,11.20
2018-09-10T03:57:43.563Z,11.50
2018-09-10T03:58:43.523Z,12.40
2018-09-10T03:59:43.483Z,12.00
2018-09-10T04:00:43.430Z,12.20
2018-09-10T04:01:43.404Z,11.80
2018-09-10T04:02:43.349Z,11.20
2018-09-10T04:03:43.322Z,11.30
2018-09-10T04:04:43.291Z,10.90
2018-09-10T04:05:43.240Z,10.90
2018-09-10T04:06:43.201Z,11.60
2018-09-10T04:07:43.156Z,11.00
2018-09-10T04:08:43.161Z,11.80
2018-09-10T04:09:43.075Z,11.10
2018-09-10T04:10:43.058Z,11.60
2018-09-10T04:11:43.017Z,12.10
2018-09-10T04:12:42.968Z,12.40
2018-09-10T04:13:42.921Z,11.40
2018-09-10T04:14:42.884Z,12.20
2018-09-10T04:15:42.828Z,11.80
2018-09-10T04:16:42.848Z,12.70
2018-09-10T04:17:42.825Z,12.50
2018-09-10T04:18:42.745Z,12.00
2018-09-10T04:19:42.680Z,12.00
2018-09-10T04:20:42.631Z,11.30
2018-09-10T04:21:42.599Z,11.20
2018-09-10T04:22:42.643Z,11.10
2018-09-10T04:23:42.523Z,10.80
2018-09-10T04:24:42.471Z,11.40
2018-09-10T04:25:42.448Z,12.30
2018-09-10T04:26:42.402Z,12.10
2018-09-10T04:27:42.575Z,11.60
2018-09-10T04:28:42.373Z,12.50
2018-09-10T04:29:42.331Z,11.90
2018-09-10T04:30:42.331Z,12.10
2018-09-10T04:31:42.265Z,12.30
2018-09-10T04:32:42.163Z,12.20
2018-09-10T04:33:42.103Z,12.10
2018-09-10T04:34:42.069Z,12.70
2018-09-10T04:35:42.030Z,12.40
2018-09-10T04:36:42.007Z,12.30
2018-09-10T04:37:42.006Z,12.50
2018-09-10T04:38:41.917Z,12.70
2018-09-10T04:39:41.876Z,12.80
2018-09-10T04:40:41.829Z,13.20
2018-09-10T04:41:41.810Z,13.70
2018-09-10T04:42:41.785Z,14.70
2018-09-10T04:43:41.706Z,14.90
2018-09-10T04:44:41.719Z,14.50
2018-09-10T04:45:41.634Z,14.80
2018-09-10T04:46:41.594Z,14.30
2018-09-10T04:47:41.654Z,13.80
2018-09-10T04:48:41.506Z,13.20
2018-09-10T04:49:41.568Z,13.10
2018-09-10T04:50:41.436Z,13.60
2018-09-10T04:51:41.414Z,12.30
2018-09-10T04:52:41.355Z,12.90
2018-09-10T04:53:41.352Z,12.10
2018-09-10T04:54:41.332Z,12.60
2018-09-10T04:55:41.227Z,12.50
2018-09-10T04:56:41.247Z,12.20
2018-09-10T04:57:41.239Z,12.20
2018-09-10T04:58:41.121Z,12.40
2018-09-10T04:59:41.138Z,13.20
2018-09-10T05:00:41.096Z,13.50
2018-09-10T05:01:41.031Z,12.40
2018-09-10T05:02:40.971Z,12.40
2018-09-10T05:03:40.984Z,11.60
2018-09-10T05:04:40.958Z,11.70
2018-09-10T05:05:40.839Z,11.90
2018-09-10T05:06:40.851Z,11.90
2018-09-10T05:07:40.797Z,11.60
2018-09-10T05:08:40.750Z,10.80
2018-09-10T05:09:40.712Z,11.40
2018-09-10T05:10:40.638Z,11.70
2018-09-10T05:11:40.641Z,11.80
2018-09-10T05:12:40.564Z,11.80
2018-09-10T05:13:40.524Z,12.10
2018-09-10T05:14:40.492Z,12.20
2018-09-10T05:15:40.456Z,12.90
2018-09-10T05:16:40.399Z,12.60
2018-09-10T05:17:40.367Z,12.90
2018-09-10T05:18:40.458Z,13.20
2018-09-10T05:19:40.293Z,12.70
2018-09-10T05:20:40.260Z,13.40
2018-09-10T05:21:40.207Z,13.00
2018-09-10T05:22:40.188Z,12.80
2018-09-10T05:23:40.126Z,12.60
2018-09-10T05:24:40.189Z,12.00
2018-09-10T05:25:40.119Z,12.50
2018-09-10T05:26:40.091Z,12.70
2018-09-10T05:27:39.969Z,13.10
2018-09-10T05:28:39.953Z,12.60
2018-09-10T05:29:39.909Z,12.90
2018-09-10T05:30:39.861Z,13.10
2018-09-10T05:31:39.817Z,11.90
2018-09-10T05:32:39.784Z,12.80
2018-09-10T05:33:39.729Z,12.50
2018-09-10T05:34:39.777Z,12.10
2018-09-10T05:35:39.651Z,12.30
2018-09-10T05:36:39.661Z,11.60
2018-09-10T05:37:39.575Z,11.30
2018-09-10T05:38:39.554Z,11.50
2018-09-10T05:39:39.506Z,11.40
2018-09-10T05:40:39.461Z,11.80
2018-09-10T05:41:39.557Z,11.60
2018-09-10T05:42:39.410Z,11.80
2018-09-10T05:43:39.386Z,11.90
2018-09-10T05:44:39.340Z,12.00
2018-09-10T05:45:39.252Z,12.20
2018-09-10T05:46:39.255Z,12.00
2018-09-10T05:47:39.239Z,12.30
2018-09-10T05:48:39.232Z,11.60
2018-09-10T05:49:39.104Z,11.40
2018-09-10T05:50:39.072Z,12.10
2018-09-10T05:51:39.015Z,12.20
2018-09-10T05:52:38.988Z,11.80
2018-09-10T05:53:38.942Z,13.00
2018-09-10T05:54:38.901Z,11.90
2018-09-10T05:55:38.957Z,11.90
2018-09-10T05:56:38.829Z,11.90
2018-09-10T05:57:38.793Z,11.90
2018-09-10T05:58:38.742Z,12.70
2018-09-10T05:59:38.715Z,12.80
2018-09-10T06:00:38.661Z,13.30
2018-09-10T06:01:38.635Z,13.50
2018-09-10T06:02:38.591Z,14.00
2018-09-10T06:03:38.565Z,13.60
2018-09-10T06:04:38.504Z,13.90
2018-09-10T06:05:38.513Z,13.80
2018-09-10T06:06:38.488Z,13.60
2018-09-10T06:07:38.444Z,14.00
2018-09-10T06:08:38.432Z,14.10
2018-09-10T06:09:38.363Z,14.10
2018-09-10T06:10:38.415Z,14.20
2018-09-10T06:11:38.250Z,13.50
2018-09-10T06:12:38.219Z,14.20
2018-09-10T06:13:38.159Z,14.20
2018-09-10T06:14:38.181Z,13.70
2018-09-10T06:15:38.102Z,14.30
2018-09-10T06:16:38.053Z,14.50
2018-09-10T06:17:38.013Z,14.30
2018-09-10T06:18:37.981Z,13.80
2018-09-10T06:19:37.960Z,13.80
2018-09-10T06:20:37.917Z,13.50
2018-09-10T06:21:37.888Z,13.10
2018-09-10T06:22:37.807Z,13.10
2018-09-10T06:23:37.768Z,12.20
2018-09-10T06:24:37.735Z,12.50
2018-09-10T06:25:37.747Z,11.70
2018-09-10T06:26:37.721Z,12.20
2018-09-10T06:27:37.636Z,12.50
2018-09-10T06:28:37.569Z,12.40
2018-09-10T06:29:37.528Z,11.80
2018-09-10T06:30:37.575Z,12.40
2018-09-10T06:31:37.492Z,12.60
2018-09-10T06:32:37.439Z,13.00
2018-09-10T06:33:37.393Z,13.60
2018-09-10T06:34:37.369Z,14.10
2018-09-10T06:35:37.451Z,13.00
2018-09-10T06:36:37.282Z,13.30
2018-09-10T06:37:37.259Z,12.00
2018-09-10T06:38:37.191Z,12.60
2018-09-10T06:39:37.160Z,12.50
2018-09-10T06:40:37.129Z,12.20
2018-09-10T06:41:37.111Z,11.90
2018-09-10T06:42:37.133Z,12.10
2018-09-10T06:43:37.011Z,12.40
2018-09-10T06:44:37.015Z,11.40
2018-09-10T06:45:36.933Z,11.30
2018-09-10T06:46:36.922Z,10.40
2018-09-10T06:47:36.875Z,10.50
2018-09-10T06:48:36.844Z,9.80
2018-09-10T06:49:36.816Z,10.00
2018-09-10T06:50:36.745Z,9.90
2018-09-10T06:51:36.695Z,10.10
2018-09-10T06:52:36.674Z,12.20
2018-09-10T06:53:36.685Z,10.60
2018-09-10T06:54:36.606Z,8.80
2018-09-10T06:55:36.595Z,7.20
2018-09-10T06:56:36.541Z,8.60
2018-09-10T06:57:36.489Z,7.50
2018-09-10T06:58:36.542Z,8.50
2018-09-10T06:59:36.518Z,7.00
2018-09-10T07:00:36.454Z,4.80
2018-09-10T07:01:36.356Z,4.10
2018-09-10T07:02:36.329Z,4.20
2018-09-10T07:03:36.319Z,4.50
2018-09-10T07:04:36.292Z,4.10
2018-09-10T07:05:36.246Z,3.90
2018-09-10T07:06:36.346Z,4.20
2018-09-10T07:07:36.195Z,3.70
2018-09-10T07:08:36.166Z,3.80
2018-09-10T07:09:36.129Z,4.00
2018-09-10T07:10:36.117Z,3.20
2018-09-10T07:11:36.066Z,3.70
2018-09-10T07:12:36.053Z,3.90
2018-09-10T07:13:36.067Z,3.40
2018-09-10T07:14:36.052Z,3.40
2018-09-10T07:15:35.993Z,3.20
2018-09-10T07:16:35.922Z,3.40
2018-09-10T07:17:35.937Z,3.30
2018-09-10T07:18:35.949Z,3.10
2018-09-10T07:19:35.844Z,2.80
2018-09-10T07:20:35.836Z,2.90
2018-09-10T07:21:35.826Z,3.10
2018-09-10T07:22:35.770Z,3.10
2018-09-10T07:23:35.738Z,2.90
2018-09-10T07:24:35.730Z,3.10
2018-09-10T07:25:35.709Z,3.00
2018-09-10T07:26:35.677Z,2.70
2018-09-10T07:27:35.674Z,2.80
2018-09-10T07:28:35.635Z,2.90
2018-09-10T07:29:35.594Z,2.60
2018-09-10T07:30:35.590Z,2.60
2018-09-10T07:31:38.379Z,2.50
2018-09-10T07:32:35.536Z,2.60
2018-09-10T07:33:35.519Z,3.00
2018-09-10T07:34:35.586Z,3.00
2018-09-10T07:35:35.527Z,2.80
2018-09-10T07:36:35.457Z,2.90
2018-09-10T07:37:35.457Z,3.00
2018-09-10T07:38:35.421Z,2.90
2018-09-10T07:39:35.396Z,2.90
2018-09-10T07:40:35.374Z,2.70
2018-09-10T07:41:35.350Z,3.00
2018-09-10T07:42:35.334Z,2.50
2018-09-10T07:43:35.337Z,2.80
2018-09-10T07:44:35.282Z,3.00
2018-09-10T07:45:35.278Z,2.70
2018-09-10T07:46:35.245Z,2.50
2018-09-10T07:47:35.234Z,2.50
2018-09-10T07:48:35.210Z,2.40
2018-09-10T07:49:35.203Z,2.60
2018-09-10T07:50:35.149Z,2.50
2018-09-10T07:51:35.128Z,2.50
2018-09-10T07:52:35.140Z,2.30
2018-09-10T07:53:35.105Z,2.40
2018-09-10T07:54:35.143Z,2.20
2018-09-10T07:55:35.032Z,2.00
2018-09-10T07:56:35.013Z,2.30
2018-09-10T07:57:34.980Z,2.20
2018-09-10T07:58:34.962Z,2.10
2018-09-10T07:59:34.950Z,2.10
2018-09-10T08:00:34.919Z,2.30
2018-09-10T08:01:34.919Z,2.30
2018-09-10T08:02:34.877Z,2.60
2018-09-10T08:03:34.874Z,2.30
2018-09-10T08:04:34.827Z,2.30
2018-09-10T08:05:34.803Z,2.20
2018-09-10T08:06:34.801Z,2.20
2018-09-10T08:07:34.807Z,2.30
2018-09-10T08:08:34.731Z,2.30
2018-09-10T08:09:34.787Z,2.20
2018-09-10T08:10:34.720Z,2.50
2018-09-10T08:11:34.804Z,2.20
2018-09-10T08:12:34.644Z,2.30
2018-09-10T08:13:34.624Z,2.10
2018-09-10T08:14:34.598Z,2.10
2018-09-10T08:15:34.576Z,2.00
2018-09-10T08:16:34.576Z,1.90
2018-09-10T08:17:34.538Z,2.00
2018-09-10T08:18:34.490Z,2.00
2018-09-10T08:19:34.460Z,2.30
2018-09-10T08:20:34.452Z,2.40
2018-09-10T08:21:34.422Z,2.20
2018-09-10T08:22:34.381Z,2.10
2018-09-10T08:23:34.365Z,1.90
2018-09-10T08:24:34.455Z,2.10
2018-09-10T08:25:34.315Z,1.90
2018-09-10T08:26:34.301Z,2.20
2018-09-10T08:27:34.247Z,2.30
2018-09-10T08:28:34.262Z,2.20
2018-09-10T08:29:34.213Z,2.10
2018-09-10T08:30:34.215Z,1.90
2018-09-10T08:31:34.168Z,2.10
2018-09-10T08:32:34.129Z,2.10
2018-09-10T08:33:34.133Z,2.10
2018-09-10T08:34:34.104Z,2.00
2018-09-10T08:35:34.057Z,1.90
2018-09-10T08:36:34.047Z,2.00
2018-09-10T08:37:34.030Z,1.90
2018-09-10T08:38:33.959Z,1.90
2018-09-10T08:39:33.959Z,2.10
2018-09-10T08:40:33.920Z,1.80
2018-09-10T08:41:33.886Z,2.20
2018-09-10T08:42:33.878Z,2.00
2018-09-10T08:43:33.830Z,2.00
2018-09-10T08:44:33.839Z,2.00
2018-09-10T08:45:33.793Z,2.10
2018-09-10T08:46:33.785Z,2.10
2018-09-10T08:47:33.727Z,1.90
2018-09-10T08:48:33.708Z,2.00
2018-09-10T08:49:33.710Z,1.90
2018-09-10T08:50:33.688Z,2.10
2018-09-10T08:51:33.634Z,2.10
2018-09-10T08:52:33.693Z,1.90
2018-09-10T08:53:33.560Z,2.20
2018-09-10T08:54:33.805Z,2.20
2018-09-10T08:55:33.643Z,2.20
2018-09-10T08:56:33.586Z,2.00
2018-09-10T08:57:33.451Z,1.60
2018-09-10T08:58:33.429Z,1.90
2018-09-10T08:59:33.410Z,2.10
2018-09-10T09:00:33.475Z,1.90
2018-09-10T09:01:33.371Z,2.00
2018-09-10T09:02:33.334Z,2.20
2018-09-10T09:03:33.325Z,2.10
2018-09-10T09:04:33.271Z,1.90
2018-09-10T09:05:33.244Z,1.80
2018-09-10T09:06:33.250Z,1.90
2018-09-10T09:07:33.200Z,1.90
2018-09-10T09:08:33.191Z,1.90
2018-09-10T09:09:33.156Z,1.90
2018-09-10T09:10:33.182Z,1.80
2018-09-10T09:11:33.096Z,1.90
2018-09-10T09:12:33.058Z,2.00
2018-09-10T09:13:33.042Z,2.20
2018-09-10T09:14:33.028Z,1.80
2018-09-10T09:15:33.004Z,1.80
2018-09-10T09:16:33.022Z,1.80
2018-09-10T09:17:33.030Z,2.20
2018-09-10T09:18:32.931Z,2.00
2018-09-10T09:19:32.883Z,2.00
2018-09-10T09:20:32.876Z,2.00
2018-09-10T09:21:32.831Z,1.90
2018-09-10T09:22:32.815Z,1.90
2018-09-10T09:23:32.831Z,2.20
2018-09-10T09:24:32.766Z,1.90
2018-09-10T09:25:32.748Z,1.70
2018-09-10T09:26:32.702Z,2.00
2018-09-10T09:27:32.676Z,2.00
2018-09-10T09:28:32.662Z,1.80
2018-09-10T09:29:32.639Z,1.90
2018-09-10T09:30:32.626Z,1.60
2018-09-10T09:31:32.590Z,1.80
2018-09-10T09:32:32.566Z,1.90
2018-09-10T09:33:32.543Z,1.80
2018-09-10T09:34:32.506Z,1.80
2018-09-10T09:35:32.499Z,1.90
2018-09-10T09:36:32.469Z,2.10
2018-09-10T09:37:32.439Z,1.70
2018-09-10T09:38:32.452Z,1.90
2018-09-10T09:39:32.408Z,1.70
2018-09-10T09:40:32.374Z,2.00
2018-09-10T09:41:32.333Z,1.90
2018-09-10T09:42:32.406Z,2.00
2018-09-10T09:43:32.382Z,1.70
2018-09-10T09:44:32.268Z,1.90
2018-09-10T09:45:32.264Z,1.90
2018-09-10T09:46:32.240Z,1.60
2018-09-10T09:47:32.195Z,1.70
2018-09-10T09:48:32.184Z,1.50
2018-09-10T09:49:32.166Z,1.60
2018-09-10T09:50:32.135Z,1.60
2018-09-10T09:51:32.111Z,1.60
2018-09-10T09:52:32.098Z,1.70
2018-09-10T09:53:32.081Z,1.60
2018-09-10T09:54:32.047Z,1.80
2018-09-10T09:55:32.039Z,1.70
2018-09-10T09:56:32.060Z,1.50
2018-09-10T09:57:31.981Z,1.60
2018-09-10T09:58:31.964Z,1.50
2018-09-10T09:59:31.992Z,1.60
2018-09-10T10:00:31.916Z,1.60
2018-09-10T10:01:31.891Z,1.60
2018-09-10T10:02:31.880Z,1.50
2018-09-10T10:03:31.865Z,1.60
2018-09-10T10:04:31.948Z,1.70
2018-09-10T10:05:31.801Z,1.70
2018-09-10T10:06:31.785Z,1.70
2018-09-10T10:07:31.763Z,1.50
2018-09-10T10:08:31.745Z,1.80
2018-09-10T10:09:31.715Z,1.70
2018-09-10T10:10:31.703Z,1.70
2018-09-10T10:11:31.693Z,1.70
2018-09-10T10:12:31.713Z,1.70
2018-09-10T10:13:31.665Z,1.40
2018-09-10T10:14:31.612Z,1.60
2018-09-10T10:15:31.610Z,1.70
2018-09-10T10:16:31.662Z,1.60
2018-09-10T10:17:31.547Z,1.40
2018-09-10T10:18:31.552Z,1.40
2018-09-10T10:19:31.493Z,1.70
2018-09-10T10:20:31.469Z,1.60
2018-09-10T10:21:31.473Z,1.40
2018-09-10T10:22:31.427Z,1.60
2018-09-10T10:23:31.404Z,1.50
2018-09-10T10:24:31.384Z,1.60
2018-09-10T10:25:31.370Z,1.60
2018-09-10T10:26:31.341Z,1.70
2018-09-10T10:27:31.330Z,1.60
2018-09-10T10:28:31.298Z,1.60
2018-09-10T10:29:31.287Z,1.90
2018-09-10T10:30:31.263Z,1.80
2018-09-10T10:31:31.229Z,1.60
2018-09-10T10:32:31.234Z,1.50
2018-09-10T10:33:31.187Z,1.60
2018-09-10T10:34:31.172Z,1.80
2018-09-10T10:35:31.161Z,1.60
2018-09-10T10:36:31.122Z,1.90
2018-09-10T10:37:31.112Z,1.70
2018-09-10T10:38:31.093Z,1.70
2018-09-10T10:39:31.079Z,1.70
2018-09-10T10:40:32.919Z,1.70
2018-09-10T10:41:31.017Z,1.60
2018-09-10T10:42:31.020Z,1.80
2018-09-10T10:43:30.993Z,2.00
2018-09-10T10:44:30.978Z,1.60
2018-09-10T10:45:30.945Z,1.70
2018-09-10T10:46:30.911Z,1.60
2018-09-10T10:47:30.965Z,1.80
2018-09-10T10:48:30.905Z,1.60
2018-09-10T10:49:30.868Z,2.00
2018-09-10T10:50:30.831Z,1.90
2018-09-10T10:51:30.828Z,1.70
2018-09-10T10:52:30.799Z,1.70
2018-09-10T10:53:30.777Z,2.00
2018-09-10T10:54:30.785Z,1.60
2018-09-10T10:55:30.756Z,1.80
2018-09-10T10:56:30.715Z,1.80
2018-09-10T10:57:30.737Z,1.70
2018-09-10T10:58:30.729Z,1.70
2018-09-10T10:59:30.695Z,1.90
2018-09-10T11:00:30.685Z,1.70
2018-09-10T11:01:30.661Z,1.60
2018-09-10T11:02:30.586Z,1.70
2018-09-10T11:03:30.571Z,1.70
2018-09-10T11:04:30.559Z,1.60
2018-09-10T11:05:30.542Z,1.90
2018-09-10T11:06:30.548Z,2.00
2018-09-10T11:07:30.511Z,1.60
2018-09-10T11:08:30.531Z,1.50
2018-09-10T11:09:30.468Z,1.70
2018-09-10T11:10:30.450Z,2.10
2018-09-10T11:11:30.451Z,1.90
2018-09-10T11:12:30.435Z,1.70
2018-09-10T11:13:30.379Z,2.10
2018-09-10T11:14:30.404Z,2.00
2018-09-10T11:15:30.339Z,1.80
2018-09-10T11:16:30.332Z,1.80
2018-09-10T11:17:30.293Z,1.90
2018-09-10T11:18:30.341Z,1.80
2018-09-10T11:19:30.278Z,2.10
2018-09-10T11:20:30.246Z,1.80
2018-09-10T11:21:30.211Z,1.80
2018-09-10T11:22:30.193Z,1.80
2018-09-10T11:23:30.218Z,1.90
2018-09-10T11:24:30.187Z,1.80
2018-09-10T11:25:30.130Z,1.60
2018-09-10T11:26:30.128Z,1.90
2018-09-10T11:27:30.122Z,1.80
2018-09-10T11:28:30.067Z,1.80
2018-09-10T11:29:30.084Z,1.80
2018-09-10T11:30:30.040Z,1.90
2018-09-10T11:31:29.997Z,1.80
2018-09-10T11:32:30.009Z,2.00
2018-09-10T11:33:29.980Z,2.00
2018-09-10T11:34:29.995Z,1.90
2018-09-10T11:35:29.912Z,2.00
2018-09-10T11:36:29.887Z,2.10
2018-09-10T11:37:29.881Z,2.00
2018-09-10T11:38:29.861Z,2.00
2018-09-10T11:39:29.844Z,1.80
2018-09-10T11:40:29.820Z,2.00
2018-09-10T11:41:29.834Z,2.10
2018-09-10T11:42:29.771Z,1.90
2018-09-10T11:43:29.788Z,1.90
2018-09-10T11:44:29.718Z,2.20
2018-09-10T11:45:29.762Z,2.00
2018-09-10T11:46:29.751Z,2.00
2018-09-10T11:47:29.651Z,1.90
2018-09-10T11:48:29.692Z,2.00
2018-09-10T11:49:29.631Z,2.10
2018-09-10T11:50:29.608Z,2.10
2018-09-10T11:51:29.593Z,2.20
2018-09-10T11:52:29.578Z,1.90
2018-09-10T11:53:29.542Z,2.10
2018-09-10T11:54:29.550Z,2.00
2018-09-10T11:55:29.549Z,2.10
2018-09-10T11:56:30.355Z,1.90
2018-09-10T11:57:29.500Z,2.10
2018-09-10T11:58:29.450Z,2.10
2018-09-10T11:59:29.418Z,2.30
2018-09-10T12:00:29.388Z,1.90
2018-09-10T12:01:29.368Z,2.10
2018-09-10T12:02:29.365Z,1.90
2018-09-10T12:03:29.347Z,1.90
2018-09-10T12:04:29.310Z,1.90
2018-09-10T12:05:29.297Z,1.90
2018-09-10T12:06:29.295Z,1.70
2018-09-10T12:07:29.254Z,2.00
2018-09-10T12:08:29.255Z,2.20
2018-09-10T12:09:29.210Z,2.20
2018-09-10T12:10:29.195Z,2.10
2018-09-10T12:11:29.163Z,2.10
2018-09-10T12:12:29.159Z,2.20
2018-09-10T12:13:29.198Z,1.80
2018-09-10T12:14:29.097Z,1.90
2018-09-10T12:15:29.073Z,1.90
2018-09-10T12:16:29.072Z,2.10
2018-09-10T12:17:29.030Z,1.90
2018-09-10T12:18:29.032Z,2.20
2018-09-10T12:19:29.011Z,2.00
2018-09-10T12:20:28.986Z,2.00
2018-09-10T12:21:28.969Z,2.20
2018-09-10T12:22:28.946Z,2.10
2018-09-10T12:23:28.909Z,2.60
2018-09-10T12:24:28.896Z,2.60
2018-09-10T12:25:28.881Z,2.70
2018-09-10T12:26:28.896Z,2.60
2018-09-10T12:27:28.852Z,2.60
2018-09-10T12:28:28.832Z,2.70
2018-09-10T12:29:28.810Z,2.80
2018-09-10T12:30:28.810Z,2.70
2018-09-10T12:31:28.754Z,2.50
2018-09-10T12:32:28.820Z,2.60
2018-09-10T12:33:28.744Z,2.60
2018-09-10T12:34:28.702Z,2.30
2018-09-10T12:37:02.443Z,2.90
2018-09-10T12:38:02.931Z,2.40
2018-09-10T12:39:56.784Z,2.50
2018-09-10T12:40:56.020Z,2.30
2018-09-10T12:42:49.101Z,2.50
2018-09-10T12:43:49.060Z,2.20
2018-09-10T12:45:44.128Z,2.30
2018-09-10T12:46:43.250Z,2.40
2018-09-10T12:48:36.743Z,2.60
2018-09-10T12:49:37.369Z,2.30
2018-09-10T12:51:29.711Z,2.70
2018-09-10T12:52:29.384Z,2.30
2018-09-10T12:54:22.812Z,2.30
2018-09-10T12:55:24.273Z,2.20
2018-09-10T12:57:17.954Z,2.40
2018-09-10T12:58:16.295Z,2.40
2018-09-10T13:00:12.469Z,2.50
2018-09-10T13:01:10.719Z,2.10
2018-09-10T13:03:04.397Z,2.30
2018-09-10T13:04:03.627Z,2.50
2018-09-10T13:05:57.520Z,2.30
2018-09-10T13:06:56.643Z,2.40
2018-09-10T13:08:50.551Z,2.40
2018-09-10T13:09:50.012Z,2.10
2018-09-10T13:11:45.083Z,2.30
2018-09-10T13:12:44.412Z,2.30
2018-09-10T13:14:38.749Z,2.50
2018-09-10T13:15:38.528Z,2.80
2018-09-10T13:17:32.356Z,2.60
2018-09-10T13:18:31.609Z,2.50
2018-09-10T13:20:24.714Z,2.70
2018-09-10T13:21:23.774Z,2.70
2018-09-10T13:23:18.236Z,2.70
2018-09-10T13:24:17.282Z,3.00